createdAt,value
2019-04-26T00:00:36.099Z,0.00
2019-04-26T00:01:36.124Z,0.00
2019-04-26T00:02:36.093Z,0.00
2019-04-26T00:03:36.086Z,0.00
2019-04-26T00:04:36.083Z,0.00
2019-04-26T00:05:37.837Z,0.00
2019-04-26T00:06:36.096Z,0.00
2019-04-26T00:07:36.076Z,0.00
2019-04-26T00:08:36.045Z,0.00
2019-04-26T00:09:36.025Z,0.00
2019-04-26T00:10:36.042Z,0.00
2019-04-26T00:11:36.052Z,0.00
2019-04-26T00:12:36.037Z,0.00
2019-04-26T00:15:20.405Z,0.00
2019-04-26T00:16:21.486Z,0.00
2019-04-26T00:17:22.362Z,0.00
2019-04-26T00:18:21.490Z,0.00
2019-04-26T00:19:22.296Z,0.00
2019-04-26T00:20:21.488Z,0.00
2019-04-26T00:21:22.426Z,0.00
2019-04-26T00:22:21.469Z,0.00
2019-04-26T00:23:22.458Z,0.00
2019-04-26T00:24:21.533Z,0.00
2019-04-26T00:25:21.452Z,0.00
2019-04-26T00:26:21.821Z,0.00
2019-04-26T00:27:21.458Z,0.00
2019-04-26T00:28:21.446Z,0.00
2019-04-26T00:29:21.414Z,0.00
2019-04-26T00:30:21.408Z,0.00
2019-04-26T00:31:21.437Z,0.00
2019-04-26T00:32:21.512Z,0.00
2019-04-26T00:33:21.469Z,0.00
2019-04-26T00:34:21.696Z,0.00
2019-04-26T00:35:22.254Z,0.00
2019-04-26T00:36:21.359Z,0.00
2019-04-26T00:37:22.444Z,0.00
2019-04-26T00:38:22.343Z,0.00
2019-04-26T00:39:22.622Z,0.00
2019-04-26T00:40:22.357Z,0.00
2019-04-26T00:41:21.346Z,0.00
2019-04-26T00:42:21.392Z,0.00
2019-04-26T00:43:21.350Z,0.00
2019-04-26T00:44:21.339Z,0.00
2019-04-26T00:45:21.307Z,0.00
2019-04-26T00:46:21.311Z,0.00
2019-04-26T00:47:21.314Z,0.00
2019-04-26T00:48:21.304Z,0.00
2019-04-26T00:49:21.338Z,0.00
2019-04-26T00:50:21.366Z,0.00
2019-04-26T00:51:21.385Z,0.00
2019-04-26T00:52:21.651Z,0.00
2019-04-26T00:53:21.797Z,0.00
2019-04-26T00:54:22.194Z,0.00
2019-04-26T00:55:21.910Z,0.00
2019-04-26T00:56:22.214Z,0.00
2019-04-26T00:57:22.347Z,0.00
2019-04-26T00:58:22.272Z,0.00
2019-04-26T00:59:21.216Z,0.00
2019-04-26T01:00:21.500Z,0.00
2019-04-26T01:01:21.218Z,0.00
2019-04-26T01:02:21.202Z,0.00
2019-04-26T01:03:21.181Z,0.00
2019-04-26T01:04:21.177Z,0.00
2019-04-26T01:05:21.163Z,0.00
2019-04-26T01:06:21.160Z,0.00
2019-04-26T01:07:21.248Z,0.00
2019-04-26T01:08:21.308Z,0.00
2019-04-26T01:09:21.554Z,0.00
2019-04-26T01:10:21.674Z,0.00
2019-04-26T01:11:21.790Z,0.00
2019-04-26T01:12:21.890Z,0.00
2019-04-26T01:13:22.011Z,0.00
2019-04-26T01:14:22.062Z,0.00
2019-04-26T01:15:22.054Z,0.00
2019-04-26T01:16:22.212Z,0.00
2019-04-26T01:17:21.085Z,0.00
2019-04-26T01:18:22.260Z,0.00
2019-04-26T01:19:21.054Z,0.00
2019-04-26T01:20:22.484Z,0.00
2019-04-26T01:21:21.047Z,0.00
2019-04-26T01:22:21.264Z,0.00
2019-04-26T01:23:22.956Z,0.00
2019-04-26T01:24:21.165Z,0.00
2019-04-26T01:25:21.152Z,0.00
2019-04-26T01:26:23.159Z,0.00
2019-04-26T01:27:21.337Z,0.00
2019-04-26T01:28:21.337Z,0.00
2019-04-26T01:29:21.774Z,0.00
2019-04-26T01:30:21.695Z,0.00
2019-04-26T01:31:21.931Z,0.00
2019-04-26T01:32:21.996Z,0.00
2019-04-26T01:33:21.876Z,0.00
2019-04-26T01:34:22.005Z,0.00
2019-04-26T01:35:22.103Z,0.00
2019-04-26T01:36:20.961Z,0.00
2019-04-26T01:37:21.044Z,0.00
2019-04-26T01:38:21.807Z,0.00
2019-04-26T01:39:22.185Z,0.00
2019-04-26T01:40:22.067Z,0.00
2019-04-26T01:41:22.307Z,0.00
2019-04-26T01:42:22.314Z,0.00
2019-04-26T01:43:21.573Z,0.00
2019-04-26T01:44:22.751Z,0.00
2019-04-26T01:45:21.744Z,0.00
2019-04-26T01:46:22.128Z,0.00
2019-04-26T01:47:21.984Z,0.00
2019-04-26T01:48:22.164Z,0.00
2019-04-26T01:49:21.400Z,0.00
2019-04-26T01:50:22.486Z,0.00
2019-04-26T01:51:21.668Z,0.00
2019-04-26T01:52:22.399Z,0.00
2019-04-26T01:53:21.147Z,0.00
2019-04-26T01:54:21.533Z,0.00
2019-04-26T01:55:21.660Z,0.00
2019-04-26T01:56:21.961Z,0.00
2019-04-26T01:57:20.926Z,0.00
2019-04-26T01:58:22.318Z,0.00
2019-04-26T01:59:20.976Z,0.00
2019-04-26T02:00:21.206Z,0.00
2019-04-26T02:01:21.103Z,0.00
2019-04-26T02:02:21.287Z,0.00
2019-04-26T02:03:21.563Z,0.00
2019-04-26T02:04:22.460Z,0.00
2019-04-26T02:05:22.414Z,0.00
2019-04-26T02:06:29.317Z,0.00
2019-04-26T02:07:22.867Z,0.00
2019-04-26T02:08:20.773Z,0.00
2019-04-26T02:09:20.755Z,0.00
2019-04-26T02:10:20.782Z,0.00
2019-04-26T02:11:20.733Z,0.00
2019-04-26T02:12:20.724Z,0.00
2019-04-26T02:13:20.733Z,0.00
2019-04-26T02:14:20.713Z,0.00
2019-04-26T02:15:20.718Z,0.00
2019-04-26T02:16:20.703Z,0.00
2019-04-26T02:17:20.701Z,0.00
2019-04-26T02:18:20.707Z,0.00
2019-04-26T02:19:20.683Z,0.00
2019-04-26T02:20:20.672Z,0.00
2019-04-26T02:21:20.665Z,0.00
2019-04-26T02:22:20.679Z,0.00
2019-04-26T02:23:20.674Z,0.00
2019-04-26T02:24:20.650Z,0.00
2019-04-26T02:25:20.648Z,0.00
2019-04-26T02:26:20.633Z,0.00
2019-04-26T02:27:20.631Z,0.00
2019-04-26T02:28:20.632Z,0.00
2019-04-26T02:29:20.630Z,0.00
2019-04-26T02:30:20.620Z,0.00
2019-04-26T02:31:20.599Z,0.00
2019-04-26T02:32:20.608Z,0.00
2019-04-26T02:33:20.590Z,0.00
2019-04-26T02:34:20.596Z,0.00
2019-04-26T02:35:20.574Z,0.00
2019-04-26T02:36:20.580Z,0.00
2019-04-26T02:37:20.563Z,0.00
2019-04-26T02:38:20.546Z,0.00
2019-04-26T02:39:20.555Z,0.00
2019-04-26T02:40:20.541Z,0.00
2019-04-26T02:41:20.536Z,0.00
2019-04-26T02:42:20.523Z,0.00
2019-04-26T02:43:20.511Z,0.00
2019-04-26T02:44:22.176Z,0.00
2019-04-26T02:45:21.505Z,0.00
2019-04-26T02:46:20.502Z,0.00
2019-04-26T02:47:20.482Z,0.00
2019-04-26T02:48:20.468Z,0.00
2019-04-26T02:49:20.489Z,0.00
2019-04-26T02:50:20.490Z,0.00
2019-04-26T02:51:20.477Z,0.00
2019-04-26T02:52:20.500Z,0.00
2019-04-26T02:53:20.459Z,0.00
2019-04-26T02:54:20.453Z,0.00
2019-04-26T02:55:20.449Z,0.00
2019-04-26T02:56:21.441Z,0.00
2019-04-26T02:57:20.443Z,0.00
2019-04-26T02:58:20.426Z,0.00
2019-04-26T02:59:20.416Z,0.00
2019-04-26T03:00:20.431Z,0.00
2019-04-26T03:01:20.407Z,0.00
2019-04-26T03:02:20.406Z,0.00
2019-04-26T03:03:20.390Z,0.00
2019-04-26T03:04:20.395Z,0.00
2019-04-26T03:05:20.385Z,0.00
2019-04-26T03:06:20.382Z,0.00
2019-04-26T03:07:20.378Z,0.00
2019-04-26T03:08:20.435Z,0.00
2019-04-26T03:09:20.344Z,0.00
2019-04-26T03:10:20.342Z,0.00
2019-04-26T03:11:20.341Z,0.00
2019-04-26T03:12:20.366Z,0.00
2019-04-26T03:13:20.317Z,0.00
2019-04-26T03:14:20.312Z,0.00
2019-04-26T03:15:20.327Z,0.00
2019-04-26T03:16:20.295Z,0.00
2019-04-26T03:17:20.310Z,0.00
2019-04-26T03:18:20.282Z,0.00
2019-04-26T03:19:20.274Z,0.00
2019-04-26T03:20:20.265Z,0.00
2019-04-26T03:21:20.267Z,0.00
2019-04-26T03:22:20.259Z,0.00
2019-04-26T03:23:20.430Z,0.00
2019-04-26T03:24:20.255Z,0.00
2019-04-26T03:25:20.241Z,4.00
2019-04-26T03:26:20.231Z,4.00
2019-04-26T03:27:20.227Z,4.00
2019-04-26T03:28:20.227Z,0.00
2019-04-26T03:29:20.217Z,0.00
2019-04-26T03:30:22.668Z,4.00
2019-04-26T03:31:21.228Z,4.00
2019-04-26T03:32:20.215Z,4.00
2019-04-26T03:33:20.302Z,4.00
2019-04-26T03:34:20.586Z,8.00
2019-04-26T03:35:20.225Z,8.00
2019-04-26T03:36:20.202Z,8.00
2019-04-26T03:37:21.673Z,8.00
2019-04-26T03:38:21.178Z,8.00
2019-04-26T03:39:20.150Z,12.00
2019-04-26T03:40:20.144Z,12.00
2019-04-26T03:41:20.153Z,16.00
2019-04-26T03:42:20.174Z,20.00
2019-04-26T03:43:21.161Z,20.00
2019-04-26T03:44:20.139Z,28.00
2019-04-26T03:45:20.166Z,28.00
2019-04-26T03:46:20.131Z,32.00
2019-04-26T03:47:20.113Z,40.00
2019-04-26T03:48:20.138Z,44.00
2019-04-26T03:49:20.098Z,52.00
2019-04-26T03:50:20.094Z,56.00
2019-04-26T03:51:20.101Z,68.00
2019-04-26T03:52:20.087Z,72.00
2019-04-26T03:53:20.090Z,84.00
2019-04-26T03:54:20.073Z,92.00
2019-04-26T03:55:20.068Z,108.00
2019-04-26T03:56:20.051Z,124.00
2019-04-26T03:57:20.058Z,136.00
2019-04-26T03:58:20.050Z,152.00
2019-04-26T03:59:20.054Z,168.00
2019-04-26T04:00:20.031Z,188.00
2019-04-26T04:01:20.020Z,204.00
2019-04-26T04:02:20.011Z,224.00
2019-04-26T04:03:20.023Z,248.00
2019-04-26T04:04:19.992Z,272.00
2019-04-26T04:05:20.000Z,304.00
2019-04-26T04:06:19.992Z,332.00
2019-04-26T04:07:35.632Z,360.00
2019-04-26T04:08:21.994Z,396.00
2019-04-26T04:09:19.965Z,436.00
2019-04-26T04:10:19.962Z,476.00
2019-04-26T04:11:19.959Z,512.00
2019-04-26T04:12:19.948Z,548.00
2019-04-26T04:13:19.934Z,592.00
2019-04-26T04:14:20.065Z,644.00
2019-04-26T04:15:19.907Z,700.00
2019-04-26T04:16:19.927Z,752.00
2019-04-26T04:17:19.930Z,808.00
2019-04-26T04:18:19.929Z,856.00
2019-04-26T04:19:19.937Z,908.00
2019-04-26T04:20:19.903Z,960.00
2019-04-26T04:21:19.896Z,1020.00
2019-04-26T04:22:19.888Z,1076.00
2019-04-26T04:23:19.883Z,1116.00
2019-04-26T04:24:19.888Z,1164.00
2019-04-26T04:25:19.867Z,1244.00
2019-04-26T04:26:19.873Z,1328.00
2019-04-26T04:27:19.851Z,1408.00
2019-04-26T04:28:19.850Z,1496.00
2019-04-26T04:29:19.887Z,1576.00
2019-04-26T04:30:19.855Z,1720.00
2019-04-26T04:31:19.844Z,2176.00
2019-04-26T04:32:19.839Z,2456.00
2019-04-26T04:33:19.823Z,3680.00
2019-04-26T04:34:19.825Z,5380.00
2019-04-26T04:35:19.834Z,5344.00
2019-04-26T04:36:19.819Z,4568.00
2019-04-26T04:37:19.814Z,6724.00
2019-04-26T04:38:19.818Z,10816.00
2019-04-26T04:39:19.825Z,14176.00
2019-04-26T04:40:19.808Z,16128.00
2019-04-26T04:41:19.821Z,17728.00
2019-04-26T04:42:19.791Z,18272.00
2019-04-26T04:43:19.827Z,18848.00
2019-04-26T04:44:19.826Z,9544.00
2019-04-26T04:45:20.766Z,11840.00
2019-04-26T04:46:19.880Z,19296.00
2019-04-26T04:47:24.720Z,21728.00
2019-04-26T04:48:21.778Z,22944.00
2019-04-26T04:49:19.793Z,24096.00
2019-04-26T04:50:19.748Z,25184.00
2019-04-26T04:51:19.742Z,25184.00
2019-04-26T04:52:19.748Z,18176.00
2019-04-26T04:53:19.731Z,4092.00
2019-04-26T04:54:19.731Z,1784.00
2019-04-26T04:55:19.756Z,1564.00
2019-04-26T04:56:19.737Z,1412.00
2019-04-26T04:57:19.737Z,1300.00
2019-04-26T04:58:19.734Z,1212.00
2019-04-26T04:59:19.699Z,1144.00
2019-04-26T05:00:19.696Z,1084.00
2019-04-26T05:01:19.691Z,1044.00
2019-04-26T05:02:19.681Z,1020.00
2019-04-26T05:03:19.675Z,1016.00
2019-04-26T05:04:19.668Z,1020.00
2019-04-26T05:05:19.673Z,1036.00
2019-04-26T05:06:19.659Z,1056.00
2019-04-26T05:07:19.648Z,1096.00
2019-04-26T05:08:19.635Z,1176.00
2019-04-26T05:09:19.652Z,1340.00
2019-04-26T05:10:19.652Z,1536.00
2019-04-26T05:11:19.648Z,1796.00
2019-04-26T05:12:19.630Z,2336.00
2019-04-26T05:13:19.623Z,2548.00
2019-04-26T05:14:19.615Z,2964.00
2019-04-26T05:15:19.620Z,3200.00
2019-04-26T05:16:19.624Z,3368.00
2019-04-26T05:17:19.619Z,3512.00
2019-04-26T05:18:19.616Z,3760.00
2019-04-26T05:19:19.606Z,4024.00
2019-04-26T05:20:19.608Z,4164.00
2019-04-26T05:21:19.598Z,4032.00
2019-04-26T05:22:19.586Z,4084.00
2019-04-26T05:23:19.572Z,3752.00
2019-04-26T05:24:19.574Z,3108.00
2019-04-26T05:25:19.596Z,2616.00
2019-04-26T05:26:19.550Z,2432.00
2019-04-26T05:27:19.548Z,2120.00
2019-04-26T05:28:19.544Z,1840.00
2019-04-26T05:29:19.534Z,1676.00
2019-04-26T05:30:19.528Z,1572.00
2019-04-26T05:31:19.511Z,1512.00
2019-04-26T05:32:19.516Z,1468.00
2019-04-26T05:33:19.496Z,1452.00
2019-04-26T05:34:19.489Z,1456.00
2019-04-26T05:35:19.499Z,1476.00
2019-04-26T05:36:19.495Z,1508.00
2019-04-26T05:37:19.479Z,1548.00
2019-04-26T05:38:19.475Z,1608.00
2019-04-26T05:39:19.462Z,1708.00
2019-04-26T05:40:19.468Z,1792.00
2019-04-26T05:41:19.451Z,1852.00
2019-04-26T05:42:19.438Z,1900.00
2019-04-26T05:43:19.430Z,1988.00
2019-04-26T05:44:19.420Z,2068.00
2019-04-26T05:45:19.417Z,2128.00
2019-04-26T05:46:19.433Z,2140.00
2019-04-26T05:47:19.422Z,2152.00
2019-04-26T05:48:19.412Z,2124.00
2019-04-26T05:49:20.168Z,2092.00
2019-04-26T05:50:19.398Z,2072.00
2019-04-26T05:51:19.404Z,2040.00
2019-04-26T05:52:19.376Z,1972.00
2019-04-26T05:53:19.389Z,1928.00
2019-04-26T05:54:19.371Z,1896.00
2019-04-26T05:55:19.357Z,1880.00
2019-04-26T05:56:19.391Z,1884.00
2019-04-26T05:57:19.365Z,1912.00
2019-04-26T05:58:19.362Z,1936.00
2019-04-26T05:59:19.349Z,1956.00
2019-04-26T06:00:19.360Z,1980.00
2019-04-26T06:01:19.348Z,2044.00
2019-04-26T06:02:19.350Z,2116.00
2019-04-26T06:03:19.339Z,2160.00
2019-04-26T06:04:19.326Z,2216.00
2019-04-26T06:05:19.326Z,2292.00
2019-04-26T06:06:19.377Z,2364.00
2019-04-26T06:07:19.330Z,2428.00
2019-04-26T06:08:30.744Z,2468.00
2019-04-26T06:09:21.315Z,2536.00
2019-04-26T06:10:19.312Z,2580.00
2019-04-26T06:11:19.322Z,2576.00
2019-04-26T06:12:19.317Z,2556.00
2019-04-26T06:13:19.291Z,2496.00
2019-04-26T06:14:19.278Z,2408.00
2019-04-26T06:15:19.272Z,2304.00
2019-04-26T06:16:19.283Z,2220.00
2019-04-26T06:17:19.328Z,2172.00
2019-04-26T06:18:19.253Z,2136.00
2019-04-26T06:19:19.241Z,2100.00
2019-04-26T06:20:23.301Z,2072.00
2019-04-26T06:21:20.213Z,2072.00
2019-04-26T06:22:20.230Z,2084.00
2019-04-26T06:23:19.212Z,2100.00
2019-04-26T06:24:19.203Z,2116.00
2019-04-26T06:25:19.200Z,2136.00
2019-04-26T06:26:19.187Z,2156.00
2019-04-26T06:27:19.186Z,2180.00
2019-04-26T06:28:19.175Z,2208.00
2019-04-26T06:29:19.167Z,2224.00
2019-04-26T06:30:19.158Z,2252.00
2019-04-26T06:31:19.148Z,2280.00
2019-04-26T06:32:19.186Z,2316.00
2019-04-26T06:33:19.135Z,2368.00
2019-04-26T06:34:19.124Z,2436.00
2019-04-26T06:35:20.388Z,2524.00
2019-04-26T06:36:20.110Z,2648.00
2019-04-26T06:37:19.119Z,2800.00
2019-04-26T06:38:19.116Z,2984.00
2019-04-26T06:39:19.107Z,3148.00
2019-04-26T06:40:19.100Z,3268.00
2019-04-26T06:41:21.538Z,3376.00
2019-04-26T06:42:19.101Z,3488.00
2019-04-26T06:43:19.093Z,3612.00
2019-04-26T06:44:19.069Z,3736.00
2019-04-26T06:45:19.064Z,3856.00
2019-04-26T06:46:19.064Z,3980.00
2019-04-26T06:47:19.060Z,4104.00
2019-04-26T06:48:19.049Z,4292.00
2019-04-26T06:49:19.048Z,4460.00
2019-04-26T06:50:19.033Z,4644.00
2019-04-26T06:51:24.506Z,4884.00
2019-04-26T06:52:21.032Z,5324.00
2019-04-26T06:53:19.011Z,5384.00
2019-04-26T06:54:19.044Z,5608.00
2019-04-26T06:55:18.996Z,5604.00
2019-04-26T06:56:19.020Z,5308.00
2019-04-26T06:57:19.002Z,5164.00
2019-04-26T06:58:18.978Z,5012.00
2019-04-26T06:59:18.989Z,4856.00
2019-04-26T07:00:18.952Z,4680.00
2019-04-26T07:01:18.949Z,4564.00
2019-04-26T07:02:18.958Z,4496.00
2019-04-26T07:03:18.931Z,4428.00
2019-04-26T07:04:18.920Z,4308.00
2019-04-26T07:05:18.920Z,4168.00
2019-04-26T07:06:18.903Z,4044.00
2019-04-26T07:07:18.921Z,4000.00
2019-04-26T07:08:18.927Z,3860.00
2019-04-26T07:09:18.910Z,3800.00
2019-04-26T07:10:18.902Z,3768.00
2019-04-26T07:11:18.897Z,3804.00
2019-04-26T07:12:18.891Z,3840.00
2019-04-26T07:13:18.892Z,3912.00
2019-04-26T07:14:18.871Z,3980.00
2019-04-26T07:15:28.343Z,3992.00
2019-04-26T07:16:23.157Z,3992.00
2019-04-26T07:17:19.846Z,3960.00
2019-04-26T07:18:18.857Z,3976.00
2019-04-26T07:19:18.838Z,4016.00
2019-04-26T07:20:18.821Z,4060.00
2019-04-26T07:21:18.813Z,4088.00
2019-04-26T07:22:18.810Z,4092.00
2019-04-26T07:23:18.809Z,4120.00
2019-04-26T07:24:18.793Z,4220.00
2019-04-26T07:25:18.813Z,4400.00
2019-04-26T07:26:18.784Z,4652.00
2019-04-26T07:27:18.800Z,5016.00
2019-04-26T07:28:18.818Z,5516.00
2019-04-26T07:29:18.803Z,6192.00
2019-04-26T07:30:21.810Z,6604.00
2019-04-26T07:31:18.763Z,7032.00
2019-04-26T07:32:18.760Z,7428.00
2019-04-26T07:33:18.768Z,7632.00
2019-04-26T07:34:18.747Z,7856.00
2019-04-26T07:35:18.733Z,7800.00
2019-04-26T07:36:18.733Z,7832.00
2019-04-26T07:37:18.719Z,7904.00
2019-04-26T07:38:18.721Z,7824.00
2019-04-26T07:39:20.726Z,7564.00
2019-04-26T07:40:19.724Z,7228.00
2019-04-26T07:41:18.708Z,6884.00
2019-04-26T07:42:18.717Z,6588.00
2019-04-26T07:43:18.695Z,6312.00
2019-04-26T07:44:18.693Z,6056.00
2019-04-26T07:45:18.700Z,5824.00
2019-04-26T07:46:18.703Z,5644.00
2019-04-26T07:47:18.686Z,5488.00
2019-04-26T07:48:18.678Z,5328.00
2019-04-26T07:49:18.678Z,5148.00
2019-04-26T07:50:18.666Z,4916.00
2019-04-26T07:51:18.666Z,4636.00
2019-04-26T07:52:18.658Z,4428.00
2019-04-26T07:53:18.665Z,4280.00
2019-04-26T07:54:18.654Z,4156.00
2019-04-26T07:55:18.640Z,4052.00
2019-04-26T07:56:18.629Z,3968.00
2019-04-26T07:57:18.623Z,3860.00
2019-04-26T07:58:18.616Z,3696.00
2019-04-26T07:59:18.616Z,3600.00
2019-04-26T08:00:18.602Z,3532.00
2019-04-26T08:01:18.603Z,3480.00
2019-04-26T08:02:18.582Z,3376.00
2019-04-26T08:03:18.582Z,3256.00
2019-04-26T08:04:18.579Z,3192.00
2019-04-26T08:05:18.560Z,3216.00
2019-04-26T08:06:18.557Z,3296.00
2019-04-26T08:07:18.558Z,3364.00
2019-04-26T08:08:18.548Z,3344.00
2019-04-26T08:09:26.988Z,3192.00
2019-04-26T08:10:20.533Z,3100.00
2019-04-26T08:11:18.529Z,3288.00
2019-04-26T08:12:18.540Z,3676.00
2019-04-26T08:13:18.530Z,4044.00
2019-04-26T08:14:18.536Z,4200.00
2019-04-26T08:15:18.538Z,4272.00
2019-04-26T08:16:18.525Z,4264.00
2019-04-26T08:17:18.519Z,4248.00
2019-04-26T08:18:18.512Z,4188.00
2019-04-26T08:19:18.557Z,4040.00
2019-04-26T08:20:18.521Z,3840.00
2019-04-26T08:21:19.126Z,3696.00
2019-04-26T08:22:23.060Z,3676.00
2019-04-26T08:23:37.916Z,3784.00
2019-04-26T08:24:21.463Z,3960.00
2019-04-26T08:25:18.484Z,4076.00
2019-04-26T08:26:18.480Z,4168.00
2019-04-26T08:27:23.254Z,4188.00
2019-04-26T08:28:20.462Z,4172.00
2019-04-26T08:29:18.448Z,4136.00
2019-04-26T08:30:19.184Z,3912.00
2019-04-26T08:31:21.574Z,3740.00
2019-04-26T08:32:19.443Z,3528.00
2019-04-26T08:33:18.427Z,3272.00
2019-04-26T08:34:20.641Z,3208.00
2019-04-26T08:35:21.841Z,3264.00
2019-04-26T08:36:19.402Z,3280.00
2019-04-26T08:37:19.317Z,3240.00
2019-04-26T08:38:22.346Z,3136.00
2019-04-26T08:39:19.384Z,3048.00
2019-04-26T08:40:25.572Z,3016.00
2019-04-26T08:41:21.012Z,2940.00
2019-04-26T08:42:23.440Z,2816.00
2019-04-26T08:43:20.354Z,2740.00
2019-04-26T08:44:18.348Z,2788.00
2019-04-26T08:45:19.326Z,2992.00
2019-04-26T08:46:18.333Z,3308.00
2019-04-26T08:47:24.481Z,3656.00
2019-04-26T08:48:22.368Z,3992.00
2019-04-26T08:49:19.323Z,4252.00
2019-04-26T08:50:18.365Z,4364.00
2019-04-26T08:51:20.723Z,4268.00
2019-04-26T08:52:19.297Z,4056.00
2019-04-26T08:53:18.294Z,3816.00
2019-04-26T08:54:18.278Z,3560.00
2019-04-26T08:55:18.287Z,3372.00
2019-04-26T08:56:20.330Z,3364.00
2019-04-26T08:57:18.265Z,3596.00
2019-04-26T08:58:18.254Z,3892.00
2019-04-26T08:59:18.240Z,3864.00
2019-04-26T09:00:18.247Z,3432.00
2019-04-26T09:01:18.241Z,3000.00
2019-04-26T09:02:18.216Z,2908.00
2019-04-26T09:03:18.215Z,3164.00
2019-04-26T09:04:18.213Z,3628.00
2019-04-26T09:05:18.363Z,4052.00
2019-04-26T09:06:18.211Z,4252.00
2019-04-26T09:07:18.182Z,4080.00
2019-04-26T09:08:18.176Z,3764.00
2019-04-26T09:09:19.771Z,3456.00
2019-04-26T09:10:18.174Z,3236.00
2019-04-26T09:11:25.910Z,3216.00
2019-04-26T09:12:23.185Z,3328.00
2019-04-26T09:13:19.141Z,3384.00
2019-04-26T09:14:18.138Z,3140.00
2019-04-26T09:15:18.120Z,3076.00
2019-04-26T09:16:18.228Z,3200.00
2019-04-26T09:17:18.147Z,3432.00
2019-04-26T09:18:18.102Z,3716.00
2019-04-26T09:19:18.224Z,4024.00
2019-04-26T09:20:28.168Z,4156.00
2019-04-26T09:21:20.115Z,4092.00
2019-04-26T09:22:22.588Z,3828.00
2019-04-26T09:23:19.154Z,3624.00
2019-04-26T09:24:21.161Z,3504.00
2019-04-26T09:25:19.246Z,3524.00
2019-04-26T09:26:18.104Z,3436.00
2019-04-26T09:27:21.113Z,3588.00
2019-04-26T09:28:18.037Z,3956.00
2019-04-26T09:29:18.164Z,4204.00
2019-04-26T09:30:18.098Z,4140.00
2019-04-26T09:31:19.594Z,3924.00
2019-04-26T09:32:19.158Z,3700.00
2019-04-26T09:33:18.134Z,3600.00
2019-04-26T09:34:18.048Z,3592.00
2019-04-26T09:35:18.110Z,3704.00
2019-04-26T09:36:18.308Z,3904.00
2019-04-26T09:37:19.016Z,3932.00
2019-04-26T09:38:18.019Z,4008.00
2019-04-26T09:39:17.989Z,4084.00
2019-04-26T09:40:21.571Z,4192.00
2019-04-26T09:41:18.992Z,4272.00
2019-04-26T09:42:17.985Z,4440.00
2019-04-26T09:43:17.990Z,4692.00
2019-04-26T09:44:18.018Z,4988.00
2019-04-26T09:45:17.956Z,5124.00
2019-04-26T09:46:17.952Z,4912.00
2019-04-26T09:47:17.960Z,4572.00
2019-04-26T09:48:17.989Z,4312.00
2019-04-26T09:49:17.919Z,4140.00
2019-04-26T09:50:17.973Z,4112.00
2019-04-26T09:51:17.993Z,4332.00
2019-04-26T09:52:17.899Z,4616.00
2019-04-26T09:53:17.895Z,4772.00
2019-04-26T09:54:17.920Z,4816.00
2019-04-26T09:55:17.903Z,4904.00
2019-04-26T09:56:18.093Z,5060.00
2019-04-26T09:57:17.887Z,5104.00
2019-04-26T09:58:18.051Z,4876.00
2019-04-26T09:59:17.891Z,4528.00
2019-04-26T10:00:17.843Z,4184.00
2019-04-26T10:01:19.766Z,3844.00
2019-04-26T10:02:19.835Z,3452.00
2019-04-26T10:03:17.829Z,3120.00
2019-04-26T10:04:17.834Z,2824.00
2019-04-26T10:05:22.257Z,2552.00
2019-04-26T10:06:18.795Z,2316.00
2019-04-26T10:07:17.815Z,2104.00
2019-04-26T10:08:17.843Z,1932.00
2019-04-26T10:09:21.347Z,1916.00
2019-04-26T10:10:22.988Z,2008.00
2019-04-26T10:11:19.756Z,2132.00
2019-04-26T10:12:17.865Z,2252.00
2019-04-26T10:13:17.757Z,2364.00
2019-04-26T10:14:17.757Z,2532.00
2019-04-26T10:15:17.744Z,2808.00
2019-04-26T10:16:18.766Z,3212.00
2019-04-26T10:17:17.719Z,3628.00
2019-04-26T10:18:20.394Z,3988.00
2019-04-26T10:19:18.730Z,4316.00
2019-04-26T10:20:17.749Z,4524.00
2019-04-26T10:21:17.715Z,4760.00
2019-04-26T10:22:17.714Z,4992.00
2019-04-26T10:23:17.698Z,5056.00
2019-04-26T10:24:17.690Z,4880.00
2019-04-26T10:25:17.684Z,4568.00
2019-04-26T10:26:17.674Z,4344.00
2019-04-26T10:27:17.682Z,4288.00
2019-04-26T10:28:17.682Z,4308.00
2019-04-26T10:29:17.653Z,4176.00
2019-04-26T10:30:17.651Z,4052.00
2019-04-26T10:31:18.634Z,3932.00
2019-04-26T10:32:17.639Z,3856.00
2019-04-26T10:33:17.631Z,3920.00
2019-04-26T10:34:17.617Z,4064.00
2019-04-26T10:35:21.534Z,4116.00
2019-04-26T10:36:18.636Z,4080.00
2019-04-26T10:37:17.632Z,4352.00
2019-04-26T10:38:19.270Z,4456.00
2019-04-26T10:39:19.613Z,4432.00
2019-04-26T10:40:17.610Z,4432.00
2019-04-26T10:41:17.613Z,4448.00
2019-04-26T10:42:17.597Z,4488.00
2019-04-26T10:43:17.581Z,4448.00
2019-04-26T10:44:17.578Z,4336.00
2019-04-26T10:45:17.570Z,4140.00
2019-04-26T10:46:17.560Z,3984.00
2019-04-26T10:47:17.590Z,3832.00
2019-04-26T10:48:17.583Z,3696.00
2019-04-26T10:49:20.412Z,3636.00
2019-04-26T10:50:18.566Z,3704.00
2019-04-26T10:51:17.559Z,3952.00
2019-04-26T10:52:17.556Z,4264.00
2019-04-26T10:53:17.546Z,4424.00
2019-04-26T10:54:17.543Z,4284.00
2019-04-26T10:55:17.588Z,3936.00
2019-04-26T10:56:20.302Z,3660.00
2019-04-26T10:57:18.523Z,3620.00
2019-04-26T10:58:17.515Z,3764.00
2019-04-26T10:59:17.506Z,3992.00
2019-04-26T11:00:18.063Z,4216.00
2019-04-26T11:01:18.487Z,4520.00
2019-04-26T11:02:17.499Z,5068.00
2019-04-26T11:03:17.470Z,5772.00
2019-04-26T11:04:17.468Z,6272.00
2019-04-26T11:05:19.265Z,6332.00
2019-04-26T11:06:18.454Z,6252.00
2019-04-26T11:07:17.474Z,6080.00
2019-04-26T11:08:17.447Z,5996.00
2019-04-26T11:09:17.481Z,6096.00
2019-04-26T11:10:17.426Z,6376.00
2019-04-26T11:11:17.419Z,6660.00
2019-04-26T11:12:17.419Z,6724.00
2019-04-26T11:13:17.411Z,6680.00
2019-04-26T11:14:18.262Z,6796.00
2019-04-26T11:15:18.396Z,7064.00
2019-04-26T11:16:17.380Z,7232.00
2019-04-26T11:17:17.799Z,7152.00
2019-04-26T11:18:19.821Z,6928.00
2019-04-26T11:19:19.360Z,6840.00
2019-04-26T11:20:17.353Z,6684.00
2019-04-26T11:21:21.021Z,6200.00
2019-04-26T11:22:29.035Z,6228.00
2019-04-26T11:23:19.339Z,6100.00
2019-04-26T11:24:19.568Z,5944.00
2019-04-26T11:25:18.317Z,5756.00
2019-04-26T11:26:17.303Z,5452.00
2019-04-26T11:27:17.297Z,5196.00
2019-04-26T11:28:21.078Z,5000.00
2019-04-26T11:29:17.277Z,4756.00
2019-04-26T11:30:20.810Z,4672.00
2019-04-26T11:31:18.264Z,4548.00
2019-04-26T11:32:17.266Z,4472.00
2019-04-26T11:33:17.253Z,4296.00
2019-04-26T11:34:19.236Z,3820.00
2019-04-26T11:35:19.316Z,3300.00
2019-04-26T11:36:17.241Z,2976.00
2019-04-26T11:37:17.787Z,2668.00
2019-04-26T11:38:21.518Z,2360.00
2019-04-26T11:39:17.229Z,2192.00
2019-04-26T11:40:17.200Z,2200.00
2019-04-26T11:41:17.202Z,2264.00
2019-04-26T11:42:17.194Z,2320.00
2019-04-26T11:43:19.460Z,2376.00
2019-04-26T11:44:18.176Z,2524.00
2019-04-26T11:45:17.257Z,2636.00
2019-04-26T11:46:17.159Z,2556.00
2019-04-26T11:47:17.154Z,2424.00
2019-04-26T11:48:17.158Z,2204.00
2019-04-26T11:49:17.139Z,2124.00
2019-04-26T11:50:52.011Z,2100.00
2019-04-26T11:51:18.005Z,2168.00
2019-04-26T11:52:36.006Z,2256.00
2019-04-26T11:53:17.118Z,2216.00
2019-04-26T11:54:20.761Z,1992.00
2019-04-26T11:55:18.188Z,1968.00
2019-04-26T11:56:17.147Z,1960.00
2019-04-26T11:57:17.140Z,2040.00
2019-04-26T11:58:17.862Z,2204.00
2019-04-26T11:59:18.134Z,2380.00
2019-04-26T12:00:17.916Z,2508.00
2019-04-26T12:01:17.809Z,2648.00
2019-04-26T12:02:17.305Z,2476.00
2019-04-26T12:03:17.075Z,2248.00
2019-04-26T12:04:17.056Z,1888.00
2019-04-26T12:05:17.394Z,1804.00
2019-04-26T12:06:17.129Z,1644.00
2019-04-26T12:07:17.130Z,1484.00
2019-04-26T12:08:17.106Z,1600.00
2019-04-26T12:09:17.336Z,1652.00
2019-04-26T12:10:48.968Z,1700.00
2019-04-26T12:11:19.085Z,1792.00
2019-04-26T12:12:18.125Z,1884.00
2019-04-26T12:13:43.758Z,1972.00
2019-04-26T12:14:20.386Z,2056.00
2019-04-26T12:15:29.712Z,2160.00
2019-04-26T12:16:20.424Z,2264.00
2019-04-26T12:17:17.971Z,2284.00
2019-04-26T12:18:17.012Z,2200.00
2019-04-26T12:19:19.549Z,2100.00
2019-04-26T12:20:18.063Z,2024.00
2019-04-26T12:21:17.008Z,1980.00
2019-04-26T12:22:16.941Z,1972.00
2019-04-26T12:23:20.809Z,2084.00
2019-04-26T12:24:18.736Z,2352.00
2019-04-26T12:25:17.894Z,2748.00
2019-04-26T12:26:17.401Z,3132.00
2019-04-26T12:27:18.027Z,3256.00
2019-04-26T12:28:16.964Z,3024.00